Hulbert, Michigan
Current Conditions -  °F | °C
As of 11:14 AM on Saturday 25 Oct 2014 (Local Time) from KERY Reporting Station
Clear Clear  
Wind Chill: 55°   Ceiling: Unl
Heat Index: 55°   Visibility: 10mi
Dew Point: 39°   Wind: 16mph
Humidity: 56%   Direction: 300°WNW
Pressure: 29.66"   Gusts: 28mph
Location:  46.35°N, 85.15°W
Report Text: KERY 251514Z AUTO 30014G24KT 10SM CLR 13/04 A2966 RMK AO2 T01260039
Loading
Personal Weather Stations






























Interactive Weather Map New forecast layout! Learn more

10-Day Weather Forecast

Advertisements
Track Severe Weather on mobile